sensor_id;sensor_type;location;lat;lon;timestamp;P1;durP1;ratioP1;P2;durP2;ratioP2
67930;SDS011;63902;52.000;5.954;2022-12-07T00:00:53;4.57;;;2.58;;
67930;SDS011;63902;52.000;5.954;2022-12-07T00:01:54;3.20;;;2.72;;
67930;SDS011;63902;52.000;5.954;2022-12-07T00:02:55;4.20;;;2.38;;
67930;SDS011;63902;52.000;5.954;2022-12-07T00:03:56;3.33;;;2.50;;
67930;SDS011;63902;52.000;5.954;2022-12-07T00:04:59;4.00;;;2.78;;
67930;SDS011;63902;52.000;5.954;2022-12-07T00:06:00;6.10;;;2.22;;
67930;SDS011;63902;52.000;5.954;2022-12-07T00:07:01;3.47;;;2.10;;
67930;SDS011;63902;52.000;5.954;2022-12-07T00:08:01;3.63;;;2.05;;
67930;SDS011;63902;52.000;5.954;2022-12-07T00:09:02;3.88;;;2.33;;
67930;SDS011;63902;52.000;5.954;2022-12-07T00:10:04;3.75;;;2.53;;
67930;SDS011;63902;52.000;5.954;2022-12-07T00:11:06;3.92;;;2.20;;
67930;SDS011;63902;52.000;5.954;2022-12-07T00:12:07;2.75;;;2.20;;
67930;SDS011;63902;52.000;5.954;2022-12-07T00:13:08;4.07;;;2.30;;
67930;SDS011;63902;52.000;5.954;2022-12-07T00:14:10;10.50;;;2.10;;
67930;SDS011;63902;52.000;5.954;2022-12-07T00:15:13;3.13;;;2.20;;
67930;SDS011;63902;52.000;5.954;2022-12-07T00:16:14;3.47;;;2.40;;
67930;SDS011;63902;52.000;5.954;2022-12-07T00:17:15;3.08;;;2.20;;
67930;SDS011;63902;52.000;5.954;2022-12-07T00:18:16;2.70;;;2.03;;
67930;SDS011;63902;52.000;5.954;2022-12-07T00:19:16;2.67;;;2.00;;
67930;SDS011;63902;52.000;5.954;2022-12-07T00:20:17;3.22;;;1.90;;
67930;SDS011;63902;52.000;5.954;2022-12-07T00:21:18;3.05;;;2.00;;
67930;SDS011;63902;52.000;5.954;2022-12-07T00:22:19;3.00;;;2.10;;
67930;SDS011;63902;52.000;5.954;2022-12-07T00:23:20;5.25;;;2.45;;
67930;SDS011;63902;52.000;5.954;2022-12-07T00:24:20;5.25;;;2.15;;
67930;SDS011;63902;52.000;5.954;2022-12-07T00:25:20;2.65;;;1.95;;
67930;SDS011;63902;52.000;5.954;2022-12-07T00:26:21;3.55;;;2.28;;
67930;SDS011;63902;52.000;5.954;2022-12-07T00:27:24;6.30;;;2.42;;
67930;SDS011;63902;52.000;5.954;2022-12-07T00:28:24;2.53;;;2.10;;
67930;SDS011;63902;52.000;5.954;2022-12-07T00:29:24;3.50;;;2.42;;
67930;SDS011;63902;52.000;5.954;2022-12-07T00:30:26;3.72;;;2.30;;
67930;SDS011;63902;52.000;5.954;2022-12-07T00:31:28;3.60;;;2.70;;
67930;SDS011;63902;52.000;5.954;2022-12-07T00:32:29;6.22;;;2.28;;
67930;SDS011;63902;52.000;5.954;2022-12-07T00:33:30;4.07;;;2.30;;
67930;SDS011;63902;52.000;5.954;2022-12-07T00:34:31;3.25;;;2.22;;
67930;SDS011;63902;52.000;5.954;2022-12-07T00:35:31;3.40;;;2.35;;
67930;SDS011;63902;52.000;5.954;2022-12-07T00:36:32;4.00;;;2.83;;
67930;SDS011;63902;52.000;5.954;2022-12-07T00:37:32;3.78;;;2.50;;
67930;SDS011;63902;52.000;5.954;2022-12-07T00:38:33;3.10;;;2.10;;
67930;SDS011;63902;52.000;5.954;2022-12-07T00:39:35;3.40;;;2.10;;
67930;SDS011;63902;52.000;5.954;2022-12-07T00:40:36;3.47;;;2.38;;
67930;SDS011;63902;52.000;5.954;2022-12-07T00:41:36;3.20;;;2.15;;
67930;SDS011;63902;52.000;5.954;2022-12-07T00:42:37;2.40;;;2.08;;
67930;SDS011;63902;52.000;5.954;2022-12-07T00:43:37;5.75;;;2.28;;
67930;SDS011;63902;52.000;5.954;2022-12-07T00:44:39;3.58;;;2.17;;
67930;SDS011;63902;52.000;5.954;2022-12-07T00:45:40;3.83;;;2.53;;
67930;SDS011;63902;52.000;5.954;2022-12-07T00:46:41;5.72;;;2.30;;
67930;SDS011;63902;52.000;5.954;2022-12-07T00:47:41;3.60;;;2.33;;
67930;SDS011;63902;52.000;5.954;2022-12-07T00:48:42;2.30;;;1.90;;
67930;SDS011;63902;52.000;5.954;2022-12-07T00:49:43;2.67;;;2.17;;
67930;SDS011;63902;52.000;5.954;2022-12-07T00:50:43;3.25;;;2.05;;
67930;SDS011;63902;52.000;5.954;2022-12-07T00:51:44;7.40;;;2.53;;
67930;SDS011;63902;52.000;5.954;2022-12-07T00:52:44;6.40;;;2.22;;
67930;SDS011;63902;52.000;5.954;2022-12-07T00:53:45;3.17;;;1.88;;
67930;SDS011;63902;52.000;5.954;2022-12-07T00:54:46;3.92;;;2.13;;
67930;SDS011;63902;52.000;5.954;2022-12-07T00:55:46;3.22;;;2.20;;
67930;SDS011;63902;52.000;5.954;2022-12-07T00:56:47;5.30;;;2.45;;
67930;SDS011;63902;52.000;5.954;2022-12-07T00:57:47;3.40;;;2.38;;
67930;SDS011;63902;52.000;5.954;2022-12-07T00:58:51;3.38;;;2.13;;
67930;SDS011;63902;52.000;5.954;2022-12-07T00:59:52;5.03;;;2.25;;
67930;SDS011;63902;52.000;5.954;2022-12-07T01:00:54;3.50;;;2.10;;
67930;SDS011;63902;52.000;5.954;2022-12-07T01:01:59;2.88;;;2.22;;
67930;SDS011;63902;52.000;5.954;2022-12-07T01:03:00;4.40;;;2.05;;
67930;SDS011;63902;52.000;5.954;2022-12-07T01:04:01;3.40;;;2.10;;
67930;SDS011;63902;52.000;5.954;2022-12-07T01:05:02;3.65;;;2.30;;
67930;SDS011;63902;52.000;5.954;2022-12-07T01:06:02;4.40;;;2.55;;
67930;SDS011;63902;52.000;5.954;2022-12-07T01:07:03;4.78;;;2.20;;
67930;SDS011;63902;52.000;5.954;2022-12-07T01:08:04;3.20;;;2.30;;
67930;SDS011;63902;52.000;5.954;2022-12-07T01:09:06;3.28;;;2.45;;
67930;SDS011;63902;52.000;5.954;2022-12-07T01:10:06;4.05;;;2.13;;
67930;SDS011;63902;52.000;5.954;2022-12-07T01:11:09;4.90;;;2.58;;
67930;SDS011;63902;52.000;5.954;2022-12-07T01:12:11;3.28;;;2.58;;
67930;SDS011;63902;52.000;5.954;2022-12-07T01:13:12;4.63;;;2.45;;
67930;SDS011;63902;52.000;5.954;2022-12-07T01:14:12;3.75;;;2.40;;
67930;SDS011;63902;52.000;5.954;2022-12-07T01:15:13;2.85;;;2.05;;
67930;SDS011;63902;52.000;5.954;2022-12-07T01:16:15;3.60;;;2.50;;
67930;SDS011;63902;52.000;5.954;2022-12-07T01:17:16;4.90;;;2.53;;
67930;SDS011;63902;52.000;5.954;2022-12-07T01:18:17;4.35;;;2.40;;
67930;SDS011;63902;52.000;5.954;2022-12-07T01:19:17;3.85;;;2.63;;
67930;SDS011;63902;52.000;5.954;2022-12-07T01:20:18;2.70;;;2.10;;
67930;SDS011;63902;52.000;5.954;2022-12-07T01:21:19;9.45;;;2.67;;
67930;SDS011;63902;52.000;5.954;2022-12-07T01:22:21;4.82;;;2.42;;
67930;SDS011;63902;52.000;5.954;2022-12-07T01:23:22;3.90;;;2.70;;
67930;SDS011;63902;52.000;5.954;2022-12-07T01:24:22;4.50;;;2.53;;
67930;SDS011;63902;52.000;5.954;2022-12-07T01:25:23;6.03;;;2.78;;
67930;SDS011;63902;52.000;5.954;2022-12-07T01:26:23;3.47;;;2.40;;
67930;SDS011;63902;52.000;5.954;2022-12-07T01:27:25;3.45;;;2.63;;
67930;SDS011;63902;52.000;5.954;2022-12-07T01:28:28;6.45;;;2.38;;
67930;SDS011;63902;52.000;5.954;2022-12-07T01:29:29;4.80;;;2.72;;
67930;SDS011;63902;52.000;5.954;2022-12-07T01:30:29;3.47;;;2.30;;
67930;SDS011;63902;52.000;5.954;2022-12-07T01:31:31;4.97;;;2.63;;
67930;SDS011;63902;52.000;5.954;2022-12-07T01:32:32;3.63;;;2.60;;
67930;SDS011;63902;52.000;5.954;2022-12-07T01:33:33;4.70;;;3.00;;
67930;SDS011;63902;52.000;5.954;2022-12-07T01:34:35;4.03;;;2.70;;
67930;SDS011;63902;52.000;5.954;2022-12-07T01:35:35;3.40;;;2.42;;
67930;SDS011;63902;52.000;5.954;2022-12-07T01:36:36;3.55;;;2.50;;
67930;SDS011;63902;52.000;5.954;2022-12-07T01:37:37;5.13;;;2.60;;
67930;SDS011;63902;52.000;5.954;2022-12-07T01:38:38;3.95;;;2.50;;
67930;SDS011;63902;52.000;5.954;2022-12-07T01:39:38;3.38;;;2.22;;
67930;SDS011;63902;52.000;5.954;2022-12-07T01:40:39;7.22;;;2.47;;
67930;SDS011;63902;52.000;5.954;2022-12-07T01:41:40;6.70;;;2.90;;
67930;SDS011;63902;52.000;5.954;2022-12-07T01:42:41;3.22;;;2.60;;
67930;SDS011;63902;52.000;5.954;2022-12-07T01:45:28;3.10;;;2.22;;
67930;SDS011;63902;52.000;5.954;2022-12-07T01:46:40;6.25;;;2.58;;
67930;SDS011;63902;52.000;5.954;2022-12-07T01:47:41;3.63;;;2.47;;
67930;SDS011;63902;52.000;5.954;2022-12-07T01:48:43;3.72;;;2.53;;
67930;SDS011;63902;52.000;5.954;2022-12-07T01:49:45;4.30;;;2.42;;
67930;SDS011;63902;52.000;5.954;2022-12-07T01:50:48;4.78;;;2.70;;
67930;SDS011;63902;52.000;5.954;2022-12-07T01:51:52;4.63;;;2.80;;
67930;SDS011;63902;52.000;5.954;2022-12-07T01:52:57;3.38;;;2.22;;
67930;SDS011;63902;52.000;5.954;2022-12-07T01:54:01;4.03;;;2.30;;
67930;SDS011;63902;52.000;5.954;2022-12-07T01:55:03;4.35;;;2.30;;
67930;SDS011;63902;52.000;5.954;2022-12-07T01:56:06;5.03;;;2.28;;
67930;SDS011;63902;52.000;5.954;2022-12-07T01:57:10;4.10;;;2.33;;
67930;SDS011;63902;52.000;5.954;2022-12-07T01:58:13;7.90;;;2.58;;
67930;SDS011;63902;52.000;5.954;2022-12-07T01:59:15;6.82;;;2.53;;
67930;SDS011;63902;52.000;5.954;2022-12-07T02:00:18;3.72;;;2.58;;
67930;SDS011;63902;52.000;5.954;2022-12-07T02:01:19;5.28;;;2.15;;
67930;SDS011;63902;52.000;5.954;2022-12-07T02:02:23;4.93;;;2.53;;
67930;SDS011;63902;52.000;5.954;2022-12-07T02:03:29;3.38;;;2.80;;
67930;SDS011;63902;52.000;5.954;2022-12-07T02:04:34;3.50;;;2.30;;
67930;SDS011;63902;52.000;5.954;2022-12-07T02:05:37;3.22;;;2.50;;
67930;SDS011;63902;52.000;5.954;2022-12-07T02:06:40;3.67;;;2.40;;
67930;SDS011;63902;52.000;5.954;2022-12-07T02:07:42;6.80;;;2.42;;
67930;SDS011;63902;52.000;5.954;2022-12-07T02:08:45;3.38;;;2.70;;
67930;SDS011;63902;52.000;5.954;2022-12-07T02:09:46;4.32;;;2.42;;
67930;SDS011;63902;52.000;5.954;2022-12-07T02:10:47;4.90;;;2.30;;
67930;SDS011;63902;52.000;5.954;2022-12-07T02:11:47;4.10;;;2.38;;
67930;SDS011;63902;52.000;5.954;2022-12-07T02:12:48;5.68;;;2.53;;
67930;SDS011;63902;52.000;5.954;2022-12-07T02:13:51;5.30;;;2.40;;
67930;SDS011;63902;52.000;5.954;2022-12-07T02:14:52;3.00;;;2.20;;
67930;SDS011;63902;52.000;5.954;2022-12-07T02:15:59;6.55;;;2.33;;
67930;SDS011;63902;52.000;5.954;2022-12-07T02:17:14;3.45;;;2.25;;
67930;SDS011;63902;52.000;5.954;2022-12-07T02:18:32;5.55;;;2.30;;
67930;SDS011;63902;52.000;5.954;2022-12-07T02:19:49;4.78;;;3.00;;
67930;SDS011;63902;52.000;5.954;2022-12-07T02:21:11;4.40;;;2.63;;
67930;SDS011;63902;52.000;5.954;2022-12-07T02:22:18;4.18;;;2.40;;
67930;SDS011;63902;52.000;5.954;2022-12-07T02:24:57;3.38;;;2.30;;
67930;SDS011;63902;52.000;5.954;2022-12-07T02:26:18;3.95;;;2.35;;
67930;SDS011;63902;52.000;5.954;2022-12-07T02:27:43;4.53;;;1.95;;
67930;SDS011;63902;52.000;5.954;2022-12-07T02:28:52;4.07;;;2.15;;
67930;SDS011;63902;52.000;5.954;2022-12-07T02:30:06;4.55;;;2.42;;
67930;SDS011;63902;52.000;5.954;2022-12-07T02:31:12;4.30;;;2.42;;
67930;SDS011;63902;52.000;5.954;2022-12-07T02:32:18;3.65;;;1.90;;
67930;SDS011;63902;52.000;5.954;2022-12-07T02:33:26;4.40;;;2.45;;
67930;SDS011;63902;52.000;5.954;2022-12-07T02:34:34;5.65;;;2.50;;
67930;SDS011;63902;52.000;5.954;2022-12-07T02:35:43;2.80;;;2.17;;
67930;SDS011;63902;52.000;5.954;2022-12-07T02:36:49;4.13;;;2.30;;
67930;SDS011;63902;52.000;5.954;2022-12-07T02:37:57;7.70;;;2.50;;
67930;SDS011;63902;52.000;5.954;2022-12-07T02:39:05;5.18;;;2.45;;
67930;SDS011;63902;52.000;5.954;2022-12-07T02:40:12;3.83;;;2.13;;
67930;SDS011;63902;52.000;5.954;2022-12-07T02:41:19;4.00;;;2.45;;
67930;SDS011;63902;52.000;5.954;2022-12-07T02:42:28;3.03;;;2.15;;
67930;SDS011;63902;52.000;5.954;2022-12-07T02:43:34;4.20;;;2.08;;
67930;SDS011;63902;52.000;5.954;2022-12-07T02:44:40;5.57;;;2.63;;
67930;SDS011;63902;52.000;5.954;2022-12-07T02:45:42;4.53;;;2.50;;
67930;SDS011;63902;52.000;5.954;2022-12-07T02:46:47;4.35;;;2.45;;
67930;SDS011;63902;52.000;5.954;2022-12-07T02:47:53;3.88;;;2.72;;
67930;SDS011;63902;52.000;5.954;2022-12-07T02:48:57;3.38;;;2.17;;
67930;SDS011;63902;52.000;5.954;2022-12-07T02:50:17;3.72;;;2.50;;
67930;SDS011;63902;52.000;5.954;2022-12-07T02:51:18;4.07;;;2.63;;
67930;SDS011;63902;52.000;5.954;2022-12-07T02:52:19;4.40;;;2.65;;
67930;SDS011;63902;52.000;5.954;2022-12-07T02:53:32;6.25;;;3.00;;
67930;SDS011;63902;52.000;5.954;2022-12-07T02:54:34;4.68;;;2.47;;
67930;SDS011;63902;52.000;5.954;2022-12-07T02:55:36;6.32;;;2.30;;
67930;SDS011;63902;52.000;5.954;2022-12-07T02:56:43;3.90;;;2.13;;
67930;SDS011;63902;52.000;5.954;2022-12-07T02:57:54;4.20;;;2.33;;
67930;SDS011;63902;52.000;5.954;2022-12-07T02:59:14;3.05;;;1.95;;
67930;SDS011;63902;52.000;5.954;2022-12-07T03:00:25;5.50;;;2.20;;
67930;SDS011;63902;52.000;5.954;2022-12-07T03:01:28;4.53;;;2.20;;
67930;SDS011;63902;52.000;5.954;2022-12-07T03:02:36;3.00;;;2.15;;
67930;SDS011;63902;52.000;5.954;2022-12-07T03:03:47;4.90;;;2.55;;
67930;SDS011;63902;52.000;5.954;2022-12-07T03:04:53;3.30;;;2.25;;
67930;SDS011;63902;52.000;5.954;2022-12-07T03:06:10;4.13;;;2.20;;
67930;SDS011;63902;52.000;5.954;2022-12-07T03:07:21;3.58;;;2.30;;
67930;SDS011;63902;52.000;5.954;2022-12-07T03:08:30;5.60;;;2.27;;
67930;SDS011;63902;52.000;5.954;2022-12-07T03:09:37;4.25;;;2.22;;
67930;SDS011;63902;52.000;5.954;2022-12-07T03:10:47;3.88;;;2.15;;
67930;SDS011;63902;52.000;5.954;2022-12-07T03:11:55;3.22;;;2.28;;
67930;SDS011;63902;52.000;5.954;2022-12-07T03:13:02;3.25;;;1.85;;
67930;SDS011;63902;52.000;5.954;2022-12-07T03:14:07;4.15;;;2.10;;
67930;SDS011;63902;52.000;5.954;2022-12-07T03:15:14;3.08;;;2.22;;
67930;SDS011;63902;52.000;5.954;2022-12-07T03:16:21;2.45;;;1.70;;
67930;SDS011;63902;52.000;5.954;2022-12-07T03:17:26;4.80;;;2.08;;
67930;SDS011;63902;52.000;5.954;2022-12-07T03:18:31;5.03;;;2.00;;
67930;SDS011;63902;52.000;5.954;2022-12-07T03:19:36;3.55;;;1.92;;
67930;SDS011;63902;52.000;5.954;2022-12-07T03:20:37;3.47;;;2.00;;
67930;SDS011;63902;52.000;5.954;2022-12-07T03:21:42;4.05;;;2.00;;
67930;SDS011;63902;52.000;5.954;2022-12-07T03:22:46;4.63;;;2.20;;
67930;SDS011;63902;52.000;5.954;2022-12-07T03:23:48;3.85;;;1.80;;
67930;SDS011;63902;52.000;5.954;2022-12-07T03:24:54;3.65;;;1.90;;
67930;SDS011;63902;52.000;5.954;2022-12-07T03:25:58;6.03;;;2.30;;
67930;SDS011;63902;52.000;5.954;2022-12-07T03:27:01;6.15;;;2.15;;
67930;SDS011;63902;52.000;5.954;2022-12-07T03:28:05;2.97;;;1.90;;
67930;SDS011;63902;52.000;5.954;2022-12-07T03:29:07;4.82;;;2.20;;
67930;SDS011;63902;52.000;5.954;2022-12-07T03:30:15;5.97;;;2.15;;
67930;SDS011;63902;52.000;5.954;2022-12-07T03:31:21;4.40;;;1.80;;
67930;SDS011;63902;52.000;5.954;2022-12-07T03:32:24;7.20;;;1.98;;
67930;SDS011;63902;52.000;5.954;2022-12-07T03:33:31;5.63;;;1.90;;
67930;SDS011;63902;52.000;5.954;2022-12-07T03:34:41;6.03;;;2.08;;
67930;SDS011;63902;52.000;5.954;2022-12-07T03:35:47;3.35;;;1.85;;
67930;SDS011;63902;52.000;5.954;2022-12-07T03:36:52;6.28;;;1.92;;
67930;SDS011;63902;52.000;5.954;2022-12-07T03:38:00;6.30;;;2.20;;
67930;SDS011;63902;52.000;5.954;2022-12-07T03:39:11;6.88;;;1.98;;
67930;SDS011;63902;52.000;5.954;2022-12-07T03:40:19;3.78;;;1.83;;
67930;SDS011;63902;52.000;5.954;2022-12-07T03:41:25;6.05;;;1.90;;
67930;SDS011;63902;52.000;5.954;2022-12-07T03:42:28;5.97;;;1.88;;
67930;SDS011;63902;52.000;5.954;2022-12-07T03:43:29;4.38;;;1.90;;
67930;SDS011;63902;52.000;5.954;2022-12-07T03:44:31;4.30;;;2.15;;
67930;SDS011;63902;52.000;5.954;2022-12-07T03:45:35;4.15;;;1.88;;
67930;SDS011;63902;52.000;5.954;2022-12-07T03:46:41;5.45;;;1.67;;
67930;SDS011;63902;52.000;5.954;2022-12-07T03:47:45;3.35;;;1.98;;
67930;SDS011;63902;52.000;5.954;2022-12-07T03:48:54;7.65;;;2.55;;
67930;SDS011;63902;52.000;5.954;2022-12-07T03:50:00;3.78;;;2.05;;
67930;SDS011;63902;52.000;5.954;2022-12-07T03:51:07;3.17;;;1.95;;
67930;SDS011;63902;52.000;5.954;2022-12-07T03:52:16;4.13;;;2.10;;
67930;SDS011;63902;52.000;5.954;2022-12-07T03:53:24;4.05;;;1.55;;
67930;SDS011;63902;52.000;5.954;2022-12-07T03:54:31;3.75;;;1.60;;
67930;SDS011;63902;52.000;5.954;2022-12-07T03:55:37;6.13;;;2.05;;
67930;SDS011;63902;52.000;5.954;2022-12-07T03:56:42;6.88;;;1.92;;
67930;SDS011;63902;52.000;5.954;2022-12-07T03:57:45;2.65;;;1.60;;
67930;SDS011;63902;52.000;5.954;2022-12-07T03:58:48;4.13;;;1.70;;
67930;SDS011;63902;52.000;5.954;2022-12-07T03:59:49;4.57;;;2.00;;
67930;SDS011;63902;52.000;5.954;2022-12-07T04:00:51;4.18;;;1.75;;
67930;SDS011;63902;52.000;5.954;2022-12-07T04:01:54;4.95;;;1.52;;
67930;SDS011;63902;52.000;5.954;2022-12-07T04:02:56;7.18;;;1.92;;
67930;SDS011;63902;52.000;5.954;2022-12-07T04:03:56;3.00;;;1.70;;
67930;SDS011;63902;52.000;5.954;2022-12-07T04:04:57;5.50;;;1.80;;
67930;SDS011;63902;52.000;5.954;2022-12-07T04:05:57;5.65;;;1.90;;
67930;SDS011;63902;52.000;5.954;2022-12-07T04:06:59;4.95;;;1.80;;
67930;SDS011;63902;52.000;5.954;2022-12-07T04:07:59;3.30;;;1.45;;
67930;SDS011;63902;52.000;5.954;2022-12-07T04:09:00;2.45;;;1.42;;
67930;SDS011;63902;52.000;5.954;2022-12-07T04:10:00;3.97;;;1.58;;
67930;SDS011;63902;52.000;5.954;2022-12-07T04:11:01;2.22;;;1.55;;
67930;SDS011;63902;52.000;5.954;2022-12-07T04:12:01;3.22;;;1.70;;
67930;SDS011;63902;52.000;5.954;2022-12-07T04:13:02;7.65;;;1.80;;
67930;SDS011;63902;52.000;5.954;2022-12-07T04:14:02;2.67;;;1.30;;
67930;SDS011;63902;52.000;5.954;2022-12-07T04:15:03;4.32;;;1.95;;
67930;SDS011;63902;52.000;5.954;2022-12-07T04:16:04;3.35;;;1.58;;
67930;SDS011;63902;52.000;5.954;2022-12-07T04:17:06;5.50;;;2.08;;
67930;SDS011;63902;52.000;5.954;2022-12-07T04:18:06;4.05;;;1.88;;
67930;SDS011;63902;52.000;5.954;2022-12-07T04:19:06;3.97;;;1.85;;
67930;SDS011;63902;52.000;5.954;2022-12-07T04:20:08;3.15;;;1.45;;
67930;SDS011;63902;52.000;5.954;2022-12-07T04:21:09;7.55;;;1.70;;
67930;SDS011;63902;52.000;5.954;2022-12-07T04:22:10;13.07;;;1.98;;
67930;SDS011;63902;52.000;5.954;2022-12-07T04:23:10;3.10;;;1.38;;
67930;SDS011;63902;52.000;5.954;2022-12-07T04:24:11;4.22;;;1.55;;
67930;SDS011;63902;52.000;5.954;2022-12-07T04:25:12;4.68;;;1.40;;
67930;SDS011;63902;52.000;5.954;2022-12-07T04:26:13;2.42;;;1.30;;
67930;SDS011;63902;52.000;5.954;2022-12-07T04:27:13;3.78;;;1.52;;
67930;SDS011;63902;52.000;5.954;2022-12-07T04:28:14;2.53;;;1.20;;
67930;SDS011;63902;52.000;5.954;2022-12-07T04:29:15;4.18;;;1.60;;
67930;SDS011;63902;52.000;5.954;2022-12-07T04:30:16;3.75;;;1.52;;
67930;SDS011;63902;52.000;5.954;2022-12-07T04:31:17;3.45;;;1.70;;
67930;SDS011;63902;52.000;5.954;2022-12-07T04:32:19;2.10;;;1.20;;
67930;SDS011;63902;52.000;5.954;2022-12-07T04:33:19;5.05;;;1.60;;
67930;SDS011;63902;52.000;5.954;2022-12-07T04:34:20;3.25;;;1.65;;
67930;SDS011;63902;52.000;5.954;2022-12-07T04:35:20;7.55;;;1.60;;
67930;SDS011;63902;52.000;5.954;2022-12-07T04:36:21;2.55;;;1.48;;
67930;SDS011;63902;52.000;5.954;2022-12-07T04:37:21;2.72;;;1.58;;
67930;SDS011;63902;52.000;5.954;2022-12-07T04:38:22;3.15;;;1.83;;
67930;SDS011;63902;52.000;5.954;2022-12-07T04:39:23;2.33;;;1.40;;
67930;SDS011;63902;52.000;5.954;2022-12-07T04:40:25;3.55;;;1.40;;
67930;SDS011;63902;52.000;5.954;2022-12-07T04:41:25;4.13;;;2.10;;
67930;SDS011;63902;52.000;5.954;2022-12-07T04:42:26;4.68;;;1.85;;
67930;SDS011;63902;52.000;5.954;2022-12-07T04:43:27;2.47;;;1.63;;
67930;SDS011;63902;52.000;5.954;2022-12-07T04:44:27;2.75;;;1.45;;
67930;SDS011;63902;52.000;5.954;2022-12-07T04:45:28;1.83;;;1.30;;
67930;SDS011;63902;52.000;5.954;2022-12-07T04:46:30;4.65;;;1.20;;
67930;SDS011;63902;52.000;5.954;2022-12-07T04:47:32;2.20;;;1.35;;
67930;SDS011;63902;52.000;5.954;2022-12-07T04:48:33;2.65;;;1.40;;
67930;SDS011;63902;52.000;5.954;2022-12-07T04:49:33;3.42;;;1.52;;
67930;SDS011;63902;52.000;5.954;2022-12-07T04:50:35;3.97;;;1.20;;
67930;SDS011;63902;52.000;5.954;2022-12-07T04:51:35;6.15;;;1.85;;
67930;SDS011;63902;52.000;5.954;2022-12-07T04:52:36;3.42;;;1.40;;
67930;SDS011;63902;52.000;5.954;2022-12-07T04:53:36;8.60;;;1.95;;
67930;SDS011;63902;52.000;5.954;2022-12-07T04:54:37;5.85;;;1.60;;
67930;SDS011;63902;52.000;5.954;2022-12-07T04:55:37;5.13;;;1.80;;
67930;SDS011;63902;52.000;5.954;2022-12-07T04:56:38;2.25;;;1.42;;
67930;SDS011;63902;52.000;5.954;2022-12-07T04:57:39;4.57;;;1.63;;
67930;SDS011;63902;52.000;5.954;2022-12-07T04:58:39;7.90;;;1.50;;
67930;SDS011;63902;52.000;5.954;2022-12-07T04:59:40;1.48;;;1.17;;
67930;SDS011;63902;52.000;5.954;2022-12-07T05:00:40;3.33;;;1.63;;
67930;SDS011;63902;52.000;5.954;2022-12-07T05:01:41;3.42;;;1.45;;
67930;SDS011;63902;52.000;5.954;2022-12-07T05:02:43;1.52;;;1.20;;
67930;SDS011;63902;52.000;5.954;2022-12-07T05:03:44;2.67;;;1.20;;
67930;SDS011;63902;52.000;5.954;2022-12-07T05:04:45;1.92;;;1.23;;
67930;SDS011;63902;52.000;5.954;2022-12-07T05:05:45;6.78;;;1.30;;
67930;SDS011;63902;52.000;5.954;2022-12-07T05:06:45;4.50;;;1.35;;
67930;SDS011;63902;52.000;5.954;2022-12-07T05:07:46;2.28;;;1.10;;
67930;SDS011;63902;52.000;5.954;2022-12-07T05:08:46;8.18;;;1.45;;
67930;SDS011;63902;52.000;5.954;2022-12-07T05:09:47;3.72;;;1.20;;
67930;SDS011;63902;52.000;5.954;2022-12-07T05:10:48;3.80;;;1.85;;
67930;SDS011;63902;52.000;5.954;2022-12-07T05:11:50;2.85;;;1.48;;
67930;SDS011;63902;52.000;5.954;2022-12-07T05:12:50;3.40;;;1.17;;
67930;SDS011;63902;52.000;5.954;2022-12-07T05:13:50;2.45;;;1.50;;
67930;SDS011;63902;52.000;5.954;2022-12-07T05:14:51;3.13;;;1.05;;
67930;SDS011;63902;52.000;5.954;2022-12-07T05:15:52;3.38;;;1.40;;
67930;SDS011;63902;52.000;5.954;2022-12-07T05:16:52;2.97;;;1.23;;
67930;SDS011;63902;52.000;5.954;2022-12-07T05:17:54;3.20;;;1.50;;
67930;SDS011;63902;52.000;5.954;2022-12-07T05:18:55;2.40;;;1.13;;
67930;SDS011;63902;52.000;5.954;2022-12-07T05:19:55;5.22;;;1.42;;
67930;SDS011;63902;52.000;5.954;2022-12-07T05:20:56;2.92;;;1.20;;
67930;SDS011;63902;52.000;5.954;2022-12-07T05:21:56;2.25;;;1.10;;
67930;SDS011;63902;52.000;5.954;2022-12-07T05:22:57;3.90;;;1.20;;
67930;SDS011;63902;52.000;5.954;2022-12-07T05:23:57;7.25;;;1.38;;
67930;SDS011;63902;52.000;5.954;2022-12-07T05:24:58;3.20;;;1.40;;
67930;SDS011;63902;52.000;5.954;2022-12-07T05:25:58;5.20;;;1.63;;
67930;SDS011;63902;52.000;5.954;2022-12-07T05:26:58;1.95;;;1.10;;
67930;SDS011;63902;52.000;5.954;2022-12-07T05:27:59;2.95;;;1.27;;
67930;SDS011;63902;52.000;5.954;2022-12-07T05:29:00;1.23;;;0.95;;
67930;SDS011;63902;52.000;5.954;2022-12-07T05:30:00;3.00;;;1.40;;
67930;SDS011;63902;52.000;5.954;2022-12-07T05:31:01;2.80;;;1.52;;
67930;SDS011;63902;52.000;5.954;2022-12-07T05:32:01;3.85;;;1.30;;
67930;SDS011;63902;52.000;5.954;2022-12-07T05:33:03;8.38;;;1.60;;
67930;SDS011;63902;52.000;5.954;2022-12-07T05:34:04;6.10;;;1.42;;
67930;SDS011;63902;52.000;5.954;2022-12-07T05:35:04;5.00;;;1.55;;
67930;SDS011;63902;52.000;5.954;2022-12-07T05:36:05;3.72;;;1.27;;
67930;SDS011;63902;52.000;5.954;2022-12-07T05:37:06;4.68;;;1.60;;
67930;SDS011;63902;52.000;5.954;2022-12-07T05:38:07;3.28;;;1.35;;
67930;SDS011;63902;52.000;5.954;2022-12-07T05:39:07;2.50;;;1.23;;
67930;SDS011;63902;52.000;5.954;2022-12-07T05:40:09;4.85;;;1.52;;
67930;SDS011;63902;52.000;5.954;2022-12-07T05:41:12;7.28;;;1.40;;
67930;SDS011;63902;52.000;5.954;2022-12-07T05:42:14;2.03;;;1.10;;
67930;SDS011;63902;52.000;5.954;2022-12-07T05:43:15;2.65;;;1.48;;
67930;SDS011;63902;52.000;5.954;2022-12-07T05:44:15;3.55;;;1.30;;
67930;SDS011;63902;52.000;5.954;2022-12-07T05:45:16;5.57;;;1.60;;
67930;SDS011;63902;52.000;5.954;2022-12-07T05:46:16;3.80;;;1.45;;
67930;SDS011;63902;52.000;5.954;2022-12-07T05:47:17;4.55;;;1.25;;
67930;SDS011;63902;52.000;5.954;2022-12-07T05:48:18;3.42;;;1.52;;
67930;SDS011;63902;52.000;5.954;2022-12-07T05:49:19;2.15;;;1.33;;
67930;SDS011;63902;52.000;5.954;2022-12-07T05:50:20;1.50;;;1.10;;
67930;SDS011;63902;52.000;5.954;2022-12-07T05:51:20;3.78;;;1.30;;
67930;SDS011;63902;52.000;5.954;2022-12-07T05:52:21;6.03;;;1.48;;
67930;SDS011;63902;52.000;5.954;2022-12-07T05:53:22;7.60;;;1.70;;
67930;SDS011;63902;52.000;5.954;2022-12-07T05:54:22;4.05;;;1.30;;
67930;SDS011;63902;52.000;5.954;2022-12-07T05:55:23;1.50;;;1.20;;
67930;SDS011;63902;52.000;5.954;2022-12-07T05:56:23;2.35;;;1.48;;
67930;SDS011;63902;52.000;5.954;2022-12-07T05:57:24;1.92;;;1.25;;
67930;SDS011;63902;52.000;5.954;2022-12-07T05:58:24;2.22;;;1.23;;
67930;SDS011;63902;52.000;5.954;2022-12-07T05:59:25;9.13;;;1.63;;
67930;SDS011;63902;52.000;5.954;2022-12-07T06:00:25;2.63;;;1.50;;
67930;SDS011;63902;52.000;5.954;2022-12-07T06:01:26;2.10;;;1.00;;
67930;SDS011;63902;52.000;5.954;2022-12-07T06:02:26;2.28;;;1.13;;
67930;SDS011;63902;52.000;5.954;2022-12-07T06:03:28;3.58;;;1.60;;
67930;SDS011;63902;52.000;5.954;2022-12-07T06:04:38;4.95;;;1.25;;
67930;SDS011;63902;52.000;5.954;2022-12-07T06:05:40;1.92;;;1.10;;
67930;SDS011;63902;52.000;5.954;2022-12-07T06:06:41;1.63;;;1.02;;
67930;SDS011;63902;52.000;5.954;2022-12-07T06:07:41;4.18;;;1.27;;
67930;SDS011;63902;52.000;5.954;2022-12-07T06:08:42;1.58;;;1.20;;
67930;SDS011;63902;52.000;5.954;2022-12-07T06:09:42;2.63;;;1.25;;
67930;SDS011;63902;52.000;5.954;2022-12-07T06:10:43;3.88;;;1.40;;
67930;SDS011;63902;52.000;5.954;2022-12-07T06:11:44;3.05;;;1.10;;
67930;SDS011;63902;52.000;5.954;2022-12-07T06:12:44;2.20;;;1.30;;
67930;SDS011;63902;52.000;5.954;2022-12-07T06:13:46;4.18;;;1.52;;
67930;SDS011;63902;52.000;5.954;2022-12-07T06:14:46;2.00;;;1.10;;
67930;SDS011;63902;52.000;5.954;2022-12-07T06:15:47;4.45;;;1.65;;
67930;SDS011;63902;52.000;5.954;2022-12-07T06:16:47;1.98;;;1.20;;
67930;SDS011;63902;52.000;5.954;2022-12-07T06:17:48;3.15;;;1.63;;
67930;SDS011;63902;52.000;5.954;2022-12-07T06:18:50;2.83;;;1.23;;
67930;SDS011;63902;52.000;5.954;2022-12-07T06:19:50;3.22;;;1.30;;
67930;SDS011;63902;52.000;5.954;2022-12-07T06:20:51;1.98;;;1.15;;
67930;SDS011;63902;52.000;5.954;2022-12-07T06:21:51;4.18;;;1.08;;